WBKSWBKK

Guest
Details From WBKS - Sandakan
To WBKK - Kota Kinabalu Intl
Flight Number -
Tags generated
Created
Modified
Stats Distance 125 nm / 231 km
Max Altitude 16,500 ft / 5,029 m
Waypoints 4
Social Downloads 4
Likes 0
Share VATSIM

Download

Looking for another format? Having issues loading an existing format? Contact us
Advertisement - Login to hide

Notes

Basic altitude profile: - Ascent Rate: 2500ft/min - Ascent Speed: 250kts - Cruise Altitude: 21000ft - Cruise Speed: 420kts - Descent Rate: 1500ft/min - Descent Speed: 250kts

Route

WBKS VSN A341 VJN WBKK

ID Type Via Altitude Latitude Longitude Leg Dist Tot Dist Heading (true) Name
O WBKS APT - 0 ft / 0 m 5.90090˚ 118.05949˚ - 0 nm - Sandakan
VSN VOR - 200 ft / 61 m 5.90606˚ 118.06831˚ 0 nm 0 nm 60° / 60° SANDAKAN VOR-DME
VJN VOR A341 (AWY-HI) 16,500 ft / 5,029 m 5.89967˚ 116.02994˚ 121 nm 122 nm 270° / 270° KOTA KINABALU VOR-DME
O WBKK APT - 0 ft / 0 m 5.93721˚ 116.05118˚ 2 nm 124 nm 29° / 29° Kota Kinabalu Intl

Altitude Profile

Advertisement - Login to hide

WBKS

Details ICAO WBKS (SDK)
Name Sandakan
Region Brunei and Malaysia
Timezone Asia/Kuching (UTC+8.0)
Stats Elevation 46 ft / 14 m (AMSL)
Location 5.900897° 118.059486°
Runways 1
Magnetic Variation 0.503° W

METAR

WBKS 121700Z 24004KT 200V260 9999 FEW015 SCT140 BKN270 27/24 Q1007

Decode

TAF

TAF WBKS 121100Z 1212/1312 28007KT 9999 FEW015 FEW016CB TEMPO 1215/1220 4000 RA FEW010 FEW015CB SCT035

Decode

Departure Runways

ID Width Length Bearing (true) Bearing (mag) Surface Threshold Offset Overrun Length
08 151 ft / 46 m 7,010 ft / 2,137 m 80.56° 81.06° Asphalt 0 ft / 0 m 198 ft / 60 m
26 151 ft / 46 m 7,010 ft / 2,137 m 260.56° 261.06° Asphalt 0 ft / 0 m 198 ft / 60 m

WBKK

Details ICAO WBKK (BKI)
Name Kota Kinabalu Intl
Region Brunei and Malaysia
Timezone Asia/Kuching (UTC+8.0)
Stats Elevation 10 ft / 3 m (AMSL)
Location 5.937208° 116.051181°
Runways 1
Magnetic Variation 0.408° W

METAR

WBKK 121700Z 00000KT 9999 FEW014 FEW016CB SCT140 BKN270 25/24 Q1009 NOSIG

Decode

TAF

TAF WBKK 121100Z 1212/1312 10007KT 9999 FEW014 TEMPO 1212/1218 4000 RA FEW010 SCT035 BKN250

Decode

Destination Runways

ID Width Length Bearing (true) Bearing (mag) Surface Threshold Offset Overrun Length
02 150 ft / 46 m 9,836 ft / 2,998 m 22.73° 23.14° Asphalt 1,600 ft / 488 m 0 ft / 0 m
20 150 ft / 46 m 9,836 ft / 2,998 m 202.73° 203.14° Asphalt 200 ft / 61 m 0 ft / 0 m

Approach Navaids

Runway Type Ident Frequency Range Bearing (true) Bearing (mag) Slope Elevation
02 Localiser IKKS 110.30 MHz 18 nm / 33 km 22.73° 23.14° - 10 ft / 3 m (AMSL)
02 Glidescope IKKS 110.30 MHz 10 nm / 19 km 22.73° 23.14° 3.00° 10 ft / 3 m (AMSL)
02 DME IKKS 110.30 MHz 18 nm / 33 km - - - 10 ft / 3 m (AMSL)

Popular Alternatives